sensor_id;sensor_type;location;lat;lon;timestamp;P1;durP1;ratioP1;P2;durP2;ratioP2
19482;SDS011;9882;51.166;6.992;2023-07-20T00:01:49;3.03;;;2.28;;
19482;SDS011;9882;51.166;6.992;2023-07-20T00:04:20;5.43;;;2.38;;
19482;SDS011;9882;51.166;6.992;2023-07-20T00:06:49;6.88;;;2.47;;
19482;SDS011;9882;51.166;6.992;2023-07-20T00:09:18;9.55;;;3.17;;
19482;SDS011;9882;51.166;6.992;2023-07-20T00:11:51;5.85;;;2.38;;
19482;SDS011;9882;51.166;6.992;2023-07-20T00:14:21;9.82;;;2.67;;
19482;SDS011;9882;51.166;6.992;2023-07-20T00:16:50;3.25;;;2.20;;
19482;SDS011;9882;51.166;6.992;2023-07-20T00:19:24;5.43;;;2.35;;
19482;SDS011;9882;51.166;6.992;2023-07-20T00:21:54;7.05;;;2.50;;
19482;SDS011;9882;51.166;6.992;2023-07-20T00:24:24;5.68;;;2.58;;
19482;SDS011;9882;51.166;6.992;2023-07-20T00:26:53;4.15;;;2.33;;
19482;SDS011;9882;51.166;6.992;2023-07-20T00:29:22;3.45;;;2.30;;
19482;SDS011;9882;51.166;6.992;2023-07-20T00:31:51;3.75;;;2.35;;
19482;SDS011;9882;51.166;6.992;2023-07-20T00:34:20;5.50;;;2.47;;
19482;SDS011;9882;51.166;6.992;2023-07-20T00:36:53;3.72;;;2.25;;
19482;SDS011;9882;51.166;6.992;2023-07-20T00:39:25;3.50;;;2.20;;
19482;SDS011;9882;51.166;6.992;2023-07-20T00:41:54;4.28;;;2.53;;
19482;SDS011;9882;51.166;6.992;2023-07-20T00:44:26;4.50;;;2.40;;
19482;SDS011;9882;51.166;6.992;2023-07-20T00:47:01;7.18;;;2.30;;
19482;SDS011;9882;51.166;6.992;2023-07-20T00:49:32;4.03;;;2.33;;
19482;SDS011;9882;51.166;6.992;2023-07-20T00:52:06;4.68;;;2.28;;
19482;SDS011;9882;51.166;6.992;2023-07-20T00:54:38;8.18;;;2.38;;
19482;SDS011;9882;51.166;6.992;2023-07-20T00:57:11;4.32;;;2.55;;
19482;SDS011;9882;51.166;6.992;2023-07-20T00:59:43;9.45;;;2.53;;
19482;SDS011;9882;51.166;6.992;2023-07-20T01:02:13;3.78;;;2.20;;
19482;SDS011;9882;51.166;6.992;2023-07-20T01:04:42;6.82;;;2.78;;
19482;SDS011;9882;51.166;6.992;2023-07-20T01:07:17;3.88;;;2.40;;
19482;SDS011;9882;51.166;6.992;2023-07-20T01:09:56;6.22;;;2.60;;
19482;SDS011;9882;51.166;6.992;2023-07-20T01:12:31;8.68;;;2.92;;
19482;SDS011;9882;51.166;6.992;2023-07-20T01:15:07;5.05;;;2.38;;
19482;SDS011;9882;51.166;6.992;2023-07-20T01:17:36;4.07;;;2.60;;
19482;SDS011;9882;51.166;6.992;2023-07-20T01:20:09;8.45;;;2.90;;
19482;SDS011;9882;51.166;6.992;2023-07-20T01:22:47;5.60;;;2.33;;
19482;SDS011;9882;51.166;6.992;2023-07-20T01:25:35;7.55;;;2.60;;
19482;SDS011;9882;51.166;6.992;2023-07-20T01:28:35;8.27;;;2.70;;
19482;SDS011;9882;51.166;6.992;2023-07-20T01:31:17;11.15;;;2.80;;
19482;SDS011;9882;51.166;6.992;2023-07-20T01:33:49;3.58;;;2.22;;
19482;SDS011;9882;51.166;6.992;2023-07-20T01:36:22;7.05;;;2.97;;
19482;SDS011;9882;51.166;6.992;2023-07-20T01:38:52;6.18;;;2.75;;
19482;SDS011;9882;51.166;6.992;2023-07-20T01:41:22;8.15;;;2.53;;
19482;SDS011;9882;51.166;6.992;2023-07-20T01:43:51;7.10;;;2.80;;
19482;SDS011;9882;51.166;6.992;2023-07-20T01:46:27;5.53;;;2.63;;
19482;SDS011;9882;51.166;6.992;2023-07-20T01:48:58;5.05;;;2.70;;
19482;SDS011;9882;51.166;6.992;2023-07-20T01:51:31;4.03;;;2.33;;
19482;SDS011;9882;51.166;6.992;2023-07-20T01:54:00;6.63;;;2.90;;
19482;SDS011;9882;51.166;6.992;2023-07-20T01:56:29;5.45;;;2.50;;
19482;SDS011;9882;51.166;6.992;2023-07-20T01:59:05;5.70;;;2.60;;
19482;SDS011;9882;51.166;6.992;2023-07-20T02:01:36;5.72;;;2.53;;
19482;SDS011;9882;51.166;6.992;2023-07-20T02:04:05;12.63;;;3.42;;
19482;SDS011;9882;51.166;6.992;2023-07-20T02:06:34;5.97;;;3.10;;
19482;SDS011;9882;51.166;6.992;2023-07-20T02:09:04;6.32;;;3.25;;
19482;SDS011;9882;51.166;6.992;2023-07-20T02:11:32;7.00;;;2.67;;
19482;SDS011;9882;51.166;6.992;2023-07-20T02:14:01;6.03;;;2.65;;
19482;SDS011;9882;51.166;6.992;2023-07-20T02:16:33;5.10;;;2.60;;
19482;SDS011;9882;51.166;6.992;2023-07-20T02:19:04;6.45;;;2.97;;
19482;SDS011;9882;51.166;6.992;2023-07-20T02:21:34;11.27;;;3.28;;
19482;SDS011;9882;51.166;6.992;2023-07-20T02:24:03;6.57;;;3.22;;
19482;SDS011;9882;51.166;6.992;2023-07-20T02:26:32;8.20;;;2.92;;
19482;SDS011;9882;51.166;6.992;2023-07-20T02:29:01;10.50;;;2.90;;
19482;SDS011;9882;51.166;6.992;2023-07-20T02:31:31;7.15;;;3.25;;
19482;SDS011;9882;51.166;6.992;2023-07-20T02:34:02;7.95;;;2.85;;
19482;SDS011;9882;51.166;6.992;2023-07-20T02:36:33;7.30;;;2.90;;
19482;SDS011;9882;51.166;6.992;2023-07-20T02:39:03;10.57;;;3.08;;
19482;SDS011;9882;51.166;6.992;2023-07-20T02:41:32;4.65;;;2.47;;
19482;SDS011;9882;51.166;6.992;2023-07-20T02:44:01;3.55;;;2.55;;
19482;SDS011;9882;51.166;6.992;2023-07-20T02:46:34;4.05;;;2.30;;
19482;SDS011;9882;51.166;6.992;2023-07-20T02:49:04;8.15;;;3.35;;
19482;SDS011;9882;51.166;6.992;2023-07-20T02:51:37;8.82;;;3.40;;
19482;SDS011;9882;51.166;6.992;2023-07-20T02:54:06;7.15;;;2.55;;
19482;SDS011;9882;51.166;6.992;2023-07-20T02:56:35;9.60;;;3.58;;
19482;SDS011;9882;51.166;6.992;2023-07-20T02:59:04;4.65;;;2.55;;
19482;SDS011;9882;51.166;6.992;2023-07-20T03:01:33;6.75;;;3.05;;
19482;SDS011;9882;51.166;6.992;2023-07-20T03:04:02;5.25;;;2.65;;
19482;SDS011;9882;51.166;6.992;2023-07-20T03:06:37;4.43;;;2.58;;
19482;SDS011;9882;51.166;6.992;2023-07-20T03:09:06;3.40;;;2.30;;
19482;SDS011;9882;51.166;6.992;2023-07-20T03:11:39;6.55;;;2.42;;
19482;SDS011;9882;51.166;6.992;2023-07-20T03:14:11;5.50;;;2.83;;
19482;SDS011;9882;51.166;6.992;2023-07-20T03:16:41;7.78;;;2.95;;
19482;SDS011;9882;51.166;6.992;2023-07-20T03:19:17;5.38;;;2.58;;
19482;SDS011;9882;51.166;6.992;2023-07-20T03:21:49;7.55;;;3.60;;
19482;SDS011;9882;51.166;6.992;2023-07-20T03:24:18;4.47;;;2.40;;
19482;SDS011;9882;51.166;6.992;2023-07-20T03:26:52;5.25;;;2.40;;
19482;SDS011;9882;51.166;6.992;2023-07-20T03:29:23;5.53;;;2.78;;
19482;SDS011;9882;51.166;6.992;2023-07-20T03:31:53;10.40;;;3.30;;
19482;SDS011;9882;51.166;6.992;2023-07-20T03:34:23;5.03;;;2.50;;
19482;SDS011;9882;51.166;6.992;2023-07-20T03:36:52;4.28;;;2.60;;
19482;SDS011;9882;51.166;6.992;2023-07-20T03:39:21;5.72;;;2.72;;
19482;SDS011;9882;51.166;6.992;2023-07-20T03:41:51;4.63;;;2.58;;
19482;SDS011;9882;51.166;6.992;2023-07-20T03:44:21;3.13;;;2.38;;
19482;SDS011;9882;51.166;6.992;2023-07-20T03:46:52;10.15;;;2.97;;
19482;SDS011;9882;51.166;6.992;2023-07-20T03:49:31;4.05;;;2.53;;
19482;SDS011;9882;51.166;6.992;2023-07-20T03:52:00;4.18;;;2.80;;
19482;SDS011;9882;51.166;6.992;2023-07-20T03:54:30;4.78;;;2.55;;
19482;SDS011;9882;51.166;6.992;2023-07-20T03:57:02;8.30;;;3.22;;
19482;SDS011;9882;51.166;6.992;2023-07-20T03:59:34;10.63;;;3.40;;
19482;SDS011;9882;51.166;6.992;2023-07-20T04:02:05;10.77;;;3.78;;
19482;SDS011;9882;51.166;6.992;2023-07-20T04:04:36;10.10;;;3.33;;
19482;SDS011;9882;51.166;6.992;2023-07-20T04:07:05;12.52;;;4.70;;
19482;SDS011;9882;51.166;6.992;2023-07-20T04:09:35;9.25;;;3.53;;
19482;SDS011;9882;51.166;6.992;2023-07-20T04:12:04;8.32;;;3.28;;
19482;SDS011;9882;51.166;6.992;2023-07-20T04:14:36;7.82;;;3.10;;
19482;SDS011;9882;51.166;6.992;2023-07-20T04:17:05;10.27;;;4.00;;
19482;SDS011;9882;51.166;6.992;2023-07-20T04:19:34;18.77;;;4.50;;
19482;SDS011;9882;51.166;6.992;2023-07-20T04:22:04;8.63;;;3.05;;
19482;SDS011;9882;51.166;6.992;2023-07-20T04:24:33;11.35;;;4.30;;
19482;SDS011;9882;51.166;6.992;2023-07-20T04:27:02;15.10;;;5.30;;
19482;SDS011;9882;51.166;6.992;2023-07-20T04:29:31;10.60;;;3.90;;
19482;SDS011;9882;51.166;6.992;2023-07-20T04:32:01;17.92;;;5.35;;
19482;SDS011;9882;51.166;6.992;2023-07-20T04:34:31;12.90;;;4.32;;
19482;SDS011;9882;51.166;6.992;2023-07-20T04:37:06;12.20;;;3.47;;
19482;SDS011;9882;51.166;6.992;2023-07-20T04:39:40;13.73;;;4.93;;
19482;SDS011;9882;51.166;6.992;2023-07-20T04:42:16;9.13;;;3.78;;
19482;SDS011;9882;51.166;6.992;2023-07-20T04:44:45;10.05;;;4.40;;
19482;SDS011;9882;51.166;6.992;2023-07-20T04:47:15;6.57;;;3.08;;
19482;SDS011;9882;51.166;6.992;2023-07-20T04:49:49;13.90;;;5.32;;
19482;SDS011;9882;51.166;6.992;2023-07-20T04:52:20;11.90;;;3.55;;
19482;SDS011;9882;51.166;6.992;2023-07-20T04:54:53;11.95;;;4.00;;
19482;SDS011;9882;51.166;6.992;2023-07-20T04:57:23;19.88;;;5.03;;
19482;SDS011;9882;51.166;6.992;2023-07-20T04:59:52;8.45;;;3.40;;
19482;SDS011;9882;51.166;6.992;2023-07-20T05:02:21;21.85;;;5.53;;
19482;SDS011;9882;51.166;6.992;2023-07-20T05:04:50;11.38;;;3.10;;
19482;SDS011;9882;51.166;6.992;2023-07-20T05:07:20;12.27;;;4.85;;
19482;SDS011;9882;51.166;6.992;2023-07-20T05:09:50;14.73;;;5.40;;
19482;SDS011;9882;51.166;6.992;2023-07-20T05:12:19;9.45;;;3.45;;
19482;SDS011;9882;51.166;6.992;2023-07-20T05:14:48;13.13;;;4.97;;
19482;SDS011;9882;51.166;6.992;2023-07-20T05:17:18;11.23;;;3.53;;
19482;SDS011;9882;51.166;6.992;2023-07-20T05:19:48;8.23;;;3.17;;
19482;SDS011;9882;51.166;6.992;2023-07-20T05:22:17;11.70;;;4.20;;
19482;SDS011;9882;51.166;6.992;2023-07-20T05:24:48;9.68;;;3.83;;
19482;SDS011;9882;51.166;6.992;2023-07-20T05:27:19;14.70;;;4.30;;
19482;SDS011;9882;51.166;6.992;2023-07-20T05:29:49;10.93;;;3.80;;
19482;SDS011;9882;51.166;6.992;2023-07-20T05:32:18;15.70;;;5.57;;
19482;SDS011;9882;51.166;6.992;2023-07-20T05:34:50;11.55;;;4.55;;
19482;SDS011;9882;51.166;6.992;2023-07-20T05:37:21;21.80;;;7.50;;
19482;SDS011;9882;51.166;6.992;2023-07-20T05:39:52;11.98;;;5.00;;
19482;SDS011;9882;51.166;6.992;2023-07-20T05:42:23;12.57;;;5.93;;
19482;SDS011;9882;51.166;6.992;2023-07-20T05:44:52;13.32;;;4.55;;
19482;SDS011;9882;51.166;6.992;2023-07-20T05:47:22;16.85;;;6.78;;
19482;SDS011;9882;51.166;6.992;2023-07-20T05:49:51;29.83;;;7.85;;
19482;SDS011;9882;51.166;6.992;2023-07-20T05:52:20;21.15;;;7.82;;
19482;SDS011;9882;51.166;6.992;2023-07-20T05:54:54;21.58;;;7.60;;
19482;SDS011;9882;51.166;6.992;2023-07-20T05:57:23;14.48;;;5.13;;
19482;SDS011;9882;51.166;6.992;2023-07-20T05:59:52;20.15;;;7.20;;
19482;SDS011;9882;51.166;6.992;2023-07-20T06:02:23;20.98;;;7.63;;
19482;SDS011;9882;51.166;6.992;2023-07-20T06:04:54;22.90;;;8.20;;
19482;SDS011;9882;51.166;6.992;2023-07-20T06:07:23;28.90;;;10.38;;
19482;SDS011;9882;51.166;6.992;2023-07-20T06:09:54;11.02;;;4.80;;
19482;SDS011;9882;51.166;6.992;2023-07-20T06:12:23;23.25;;;9.18;;
19482;SDS011;9882;51.166;6.992;2023-07-20T06:14:52;23.90;;;9.50;;
19482;SDS011;9882;51.166;6.992;2023-07-20T06:17:21;26.40;;;10.30;;
19482;SDS011;9882;51.166;6.992;2023-07-20T06:19:50;25.08;;;9.68;;
19482;SDS011;9882;51.166;6.992;2023-07-20T06:22:20;13.18;;;5.97;;
19482;SDS011;9882;51.166;6.992;2023-07-20T06:24:49;31.23;;;10.18;;
19482;SDS011;9882;51.166;6.992;2023-07-20T06:27:19;27.60;;;9.70;;
19482;SDS011;9882;51.166;6.992;2023-07-20T06:29:48;33.20;;;10.50;;
19482;SDS011;9882;51.166;6.992;2023-07-20T06:32:18;34.28;;;10.93;;
19482;SDS011;9882;51.166;6.992;2023-07-20T06:34:47;36.78;;;10.57;;
19482;SDS011;9882;51.166;6.992;2023-07-20T06:37:19;19.58;;;8.52;;
19482;SDS011;9882;51.166;6.992;2023-07-20T06:39:51;26.80;;;10.77;;
19482;SDS011;9882;51.166;6.992;2023-07-20T06:42:24;12.65;;;5.85;;
19482;SDS011;9882;51.166;6.992;2023-07-20T06:45:14;22.38;;;10.00;;
19482;SDS011;9882;51.166;6.992;2023-07-20T06:47:43;21.05;;;7.88;;
19482;SDS011;9882;51.166;6.992;2023-07-20T06:50:17;23.90;;;10.45;;
19482;SDS011;9882;51.166;6.992;2023-07-20T06:52:46;25.35;;;10.52;;
19482;SDS011;9882;51.166;6.992;2023-07-20T06:55:21;29.52;;;11.90;;
19482;SDS011;9882;51.166;6.992;2023-07-20T06:57:54;26.02;;;10.93;;
19482;SDS011;9882;51.166;6.992;2023-07-20T07:00:25;28.67;;;11.07;;
19482;SDS011;9882;51.166;6.992;2023-07-20T07:02:54;14.70;;;5.53;;
19482;SDS011;9882;51.166;6.992;2023-07-20T07:05:23;28.20;;;11.52;;
19482;SDS011;9882;51.166;6.992;2023-07-20T07:08:01;25.75;;;11.32;;
19482;SDS011;9882;51.166;6.992;2023-07-20T07:10:30;18.05;;;7.25;;
19482;SDS011;9882;51.166;6.992;2023-07-20T07:13:01;25.02;;;10.10;;
19482;SDS011;9882;51.166;6.992;2023-07-20T07:15:31;28.52;;;10.68;;
19482;SDS011;9882;51.166;6.992;2023-07-20T07:18:00;24.92;;;9.65;;
19482;SDS011;9882;51.166;6.992;2023-07-20T07:20:30;24.83;;;10.00;;
19482;SDS011;9882;51.166;6.992;2023-07-20T07:23:04;29.98;;;10.43;;
19482;SDS011;9882;51.166;6.992;2023-07-20T07:25:32;16.15;;;6.30;;
19482;SDS011;9882;51.166;6.992;2023-07-20T07:28:03;23.25;;;9.45;;
19482;SDS011;9882;51.166;6.992;2023-07-20T07:30:32;20.70;;;7.70;;
19482;SDS011;9882;51.166;6.992;2023-07-20T07:33:01;28.67;;;11.63;;
19482;SDS011;9882;51.166;6.992;2023-07-20T07:35:31;26.50;;;10.30;;
19482;SDS011;9882;51.166;6.992;2023-07-20T07:38:04;26.08;;;11.32;;
19482;SDS011;9882;51.166;6.992;2023-07-20T07:40:45;20.70;;;8.43;;
19482;SDS011;9882;51.166;6.992;2023-07-20T07:43:17;19.80;;;8.55;;
19482;SDS011;9882;51.166;6.992;2023-07-20T07:45:46;20.70;;;8.95;;
19482;SDS011;9882;51.166;6.992;2023-07-20T07:48:16;25.73;;;10.73;;
19482;SDS011;9882;51.166;6.992;2023-07-20T07:50:45;22.80;;;9.52;;
19482;SDS011;9882;51.166;6.992;2023-07-20T07:53:14;23.38;;;8.98;;
19482;SDS011;9882;51.166;6.992;2023-07-20T07:55:47;26.20;;;11.02;;
19482;SDS011;9882;51.166;6.992;2023-07-20T07:58:18;25.90;;;10.35;;
19482;SDS011;9882;51.166;6.992;2023-07-20T08:00:47;20.88;;;8.35;;
19482;SDS011;9882;51.166;6.992;2023-07-20T08:03:16;24.02;;;9.73;;
19482;SDS011;9882;51.166;6.992;2023-07-20T08:05:48;23.95;;;8.65;;
19482;SDS011;9882;51.166;6.992;2023-07-20T08:08:17;24.08;;;9.30;;
19482;SDS011;9882;51.166;6.992;2023-07-20T08:10:46;18.02;;;6.85;;
19482;SDS011;9882;51.166;6.992;2023-07-20T08:13:20;18.40;;;8.23;;
19482;SDS011;9882;51.166;6.992;2023-07-20T08:15:49;14.65;;;6.63;;
19482;SDS011;9882;51.166;6.992;2023-07-20T08:18:20;20.15;;;6.65;;
19482;SDS011;9882;51.166;6.992;2023-07-20T08:20:49;15.25;;;6.10;;
19482;SDS011;9882;51.166;6.992;2023-07-20T08:23:19;8.18;;;4.35;;
19482;SDS011;9882;51.166;6.992;2023-07-20T08:25:48;6.40;;;3.97;;
19482;SDS011;9882;51.166;6.992;2023-07-20T08:28:17;9.35;;;4.47;;
19482;SDS011;9882;51.166;6.992;2023-07-20T08:30:50;7.57;;;3.92;;
19482;SDS011;9882;51.166;6.992;2023-07-20T08:33:22;4.63;;;3.17;;
19482;SDS011;9882;51.166;6.992;2023-07-20T08:35:51;10.25;;;3.90;;
19482;SDS011;9882;51.166;6.992;2023-07-20T08:38:23;8.25;;;3.80;;
19482;SDS011;9882;51.166;6.992;2023-07-20T08:40:52;15.48;;;5.43;;
19482;SDS011;9882;51.166;6.992;2023-07-20T08:43:24;10.18;;;4.75;;
19482;SDS011;9882;51.166;6.992;2023-07-20T08:45:54;9.18;;;4.63;;
19482;SDS011;9882;51.166;6.992;2023-07-20T08:48:23;8.70;;;4.70;;
19482;SDS011;9882;51.166;6.992;2023-07-20T08:50:53;6.22;;;3.60;;
19482;SDS011;9882;51.166;6.992;2023-07-20T08:53:25;8.63;;;4.10;;
19482;SDS011;9882;51.166;6.992;2023-07-20T08:55:56;8.13;;;3.95;;
19482;SDS011;9882;51.166;6.992;2023-07-20T08:58:27;7.72;;;3.10;;
19482;SDS011;9882;51.166;6.992;2023-07-20T09:00:56;7.15;;;2.63;;
19482;SDS011;9882;51.166;6.992;2023-07-20T09:03:28;6.20;;;2.97;;
19482;SDS011;9882;51.166;6.992;2023-07-20T09:06:03;4.13;;;2.90;;
19482;SDS011;9882;51.166;6.992;2023-07-20T09:08:32;5.80;;;2.78;;
19482;SDS011;9882;51.166;6.992;2023-07-20T09:11:01;5.18;;;2.75;;
19482;SDS011;9882;51.166;6.992;2023-07-20T09:13:33;6.38;;;3.25;;
19482;SDS011;9882;51.166;6.992;2023-07-20T09:16:02;8.55;;;3.65;;
19482;SDS011;9882;51.166;6.992;2023-07-20T09:18:32;6.60;;;3.63;;
19482;SDS011;9882;51.166;6.992;2023-07-20T09:21:02;4.78;;;3.05;;
19482;SDS011;9882;51.166;6.992;2023-07-20T09:23:32;11.85;;;4.68;;
19482;SDS011;9882;51.166;6.992;2023-07-20T09:26:08;6.65;;;4.00;;
19482;SDS011;9882;51.166;6.992;2023-07-20T09:28:43;9.10;;;3.88;;
19482;SDS011;9882;51.166;6.992;2023-07-20T09:31:22;7.70;;;4.47;;
19482;SDS011;9882;51.166;6.992;2023-07-20T09:33:51;7.43;;;4.28;;
19482;SDS011;9882;51.166;6.992;2023-07-20T09:36:26;9.63;;;4.70;;
19482;SDS011;9882;51.166;6.992;2023-07-20T09:38:58;6.82;;;4.35;;
19482;SDS011;9882;51.166;6.992;2023-07-20T09:41:30;11.98;;;5.10;;
19482;SDS011;9882;51.166;6.992;2023-07-20T09:44:14;8.85;;;4.55;;
19482;SDS011;9882;51.166;6.992;2023-07-20T09:46:47;9.57;;;4.97;;
19482;SDS011;9882;51.166;6.992;2023-07-20T09:49:20;12.48;;;4.90;;
19482;SDS011;9882;51.166;6.992;2023-07-20T09:51:52;8.80;;;4.75;;
19482;SDS011;9882;51.166;6.992;2023-07-20T09:54:23;14.88;;;4.75;;
19482;SDS011;9882;51.166;6.992;2023-07-20T09:56:55;7.85;;;4.38;;
19482;SDS011;9882;51.166;6.992;2023-07-20T09:59:26;5.97;;;3.83;;
19482;SDS011;9882;51.166;6.992;2023-07-20T10:01:56;8.93;;;4.63;;
19482;SDS011;9882;51.166;6.992;2023-07-20T10:04:27;6.20;;;3.65;;
19482;SDS011;9882;51.166;6.992;2023-07-20T10:07:00;8.10;;;4.60;;
19482;SDS011;9882;51.166;6.992;2023-07-20T10:09:35;8.50;;;3.90;;
19482;SDS011;9882;51.166;6.992;2023-07-20T10:12:08;7.43;;;4.05;;
19482;SDS011;9882;51.166;6.992;2023-07-20T10:14:44;8.23;;;3.50;;
19482;SDS011;9882;51.166;6.992;2023-07-20T10:17:28;9.07;;;3.72;;
19482;SDS011;9882;51.166;6.992;2023-07-20T10:19:58;6.25;;;3.80;;
19482;SDS011;9882;51.166;6.992;2023-07-20T10:22:31;8.88;;;3.97;;
19482;SDS011;9882;51.166;6.992;2023-07-20T10:25:07;5.43;;;3.75;;
19482;SDS011;9882;51.166;6.992;2023-07-20T10:27:37;10.25;;;3.88;;
19482;SDS011;9882;51.166;6.992;2023-07-20T10:30:09;7.63;;;3.88;;
19482;SDS011;9882;51.166;6.992;2023-07-20T10:32:39;9.98;;;3.80;;
19482;SDS011;9882;51.166;6.992;2023-07-20T10:35:13;9.45;;;3.90;;
19482;SDS011;9882;51.166;6.992;2023-07-20T10:37:46;10.40;;;3.58;;
19482;SDS011;9882;51.166;6.992;2023-07-20T10:40:29;7.85;;;3.40;;
19482;SDS011;9882;51.166;6.992;2023-07-20T10:43:00;4.25;;;2.78;;
19482;SDS011;9882;51.166;6.992;2023-07-20T10:45:37;2.85;;;2.13;;
19482;SDS011;9882;51.166;6.992;2023-07-20T10:48:17;4.47;;;2.35;;
19482;SDS011;9882;51.166;6.992;2023-07-20T10:53:44;4.10;;;2.30;;
19482;SDS011;9882;51.166;6.992;2023-07-20T10:56:14;4.90;;;2.88;;
19482;SDS011;9882;51.166;6.992;2023-07-20T10:58:47;5.30;;;2.90;;
19482;SDS011;9882;51.166;6.992;2023-07-20T11:01:18;3.22;;;2.38;;
19482;SDS011;9882;51.166;6.992;2023-07-20T11:03:48;5.72;;;2.83;;
19482;SDS011;9882;51.166;6.992;2023-07-20T11:06:32;5.13;;;2.90;;
19482;SDS011;9882;51.166;6.992;2023-07-20T11:09:06;2.45;;;1.88;;
19482;SDS011;9882;51.166;6.992;2023-07-20T11:11:38;4.18;;;2.30;;
19482;SDS011;9882;51.166;6.992;2023-07-20T11:14:08;7.38;;;2.63;;
19482;SDS011;9882;51.166;6.992;2023-07-20T11:16:42;4.93;;;2.60;;
19482;SDS011;9882;51.166;6.992;2023-07-20T11:19:15;3.95;;;2.50;;
19482;SDS011;9882;51.166;6.992;2023-07-20T11:21:51;2.97;;;2.17;;
19482;SDS011;9882;51.166;6.992;2023-07-20T11:24:26;3.95;;;2.20;;
19482;SDS011;9882;51.166;6.992;2023-07-20T11:26:55;3.55;;;2.20;;
19482;SDS011;9882;51.166;6.992;2023-07-20T11:29:26;4.53;;;2.25;;
19482;SDS011;9882;51.166;6.992;2023-07-20T11:32:00;5.20;;;2.03;;
19482;SDS011;9882;51.166;6.992;2023-07-20T11:34:30;2.25;;;1.67;;
19482;SDS011;9882;51.166;6.992;2023-07-20T11:37:00;1.52;;;1.42;;
19482;SDS011;9882;51.166;6.992;2023-07-20T11:39:32;2.40;;;1.80;;
19482;SDS011;9882;51.166;6.992;2023-07-20T11:42:02;2.05;;;1.85;;
19482;SDS011;9882;51.166;6.992;2023-07-20T11:44:34;2.33;;;1.98;;
19482;SDS011;9882;51.166;6.992;2023-07-20T11:47:07;3.95;;;2.00;;
19482;SDS011;9882;51.166;6.992;2023-07-20T11:49:39;4.38;;;2.20;;
19482;SDS011;9882;51.166;6.992;2023-07-20T11:52:09;3.17;;;1.92;;
19482;SDS011;9882;51.166;6.992;2023-07-20T11:54:42;1.80;;;1.65;;
19482;SDS011;9882;51.166;6.992;2023-07-20T11:57:17;2.08;;;1.58;;
19482;SDS011;9882;51.166;6.992;2023-07-20T11:59:53;1.85;;;1.63;;
19482;SDS011;9882;51.166;6.992;2023-07-20T12:02:26;1.45;;;1.35;;
19482;SDS011;9882;51.166;6.992;2023-07-20T12:04:56;1.50;;;1.40;;
19482;SDS011;9882;51.166;6.992;2023-07-20T12:07:26;4.45;;;1.58;;
19482;SDS011;9882;51.166;6.992;2023-07-20T12:10:03;3.00;;;1.50;;
19482;SDS011;9882;51.166;6.992;2023-07-20T12:12:33;4.60;;;1.75;;
19482;SDS011;9882;51.166;6.992;2023-07-20T12:15:13;3.90;;;1.77;;
19482;SDS011;9882;51.166;6.992;2023-07-20T12:17:48;5.28;;;1.80;;
19482;SDS011;9882;51.166;6.992;2023-07-20T12:20:25;1.50;;;1.40;;
19482;SDS011;9882;51.166;6.992;2023-07-20T12:22:58;3.25;;;1.55;;
19482;SDS011;9882;51.166;6.992;2023-07-20T12:25:33;3.55;;;1.48;;
19482;SDS011;9882;51.166;6.992;2023-07-20T12:28:05;1.92;;;1.63;;
19482;SDS011;9882;51.166;6.992;2023-07-20T12:30:35;13.20;;;1.60;;
19482;SDS011;9882;51.166;6.992;2023-07-20T12:33:09;5.57;;;1.98;;
19482;SDS011;9882;51.166;6.992;2023-07-20T12:35:39;2.90;;;1.75;;
19482;SDS011;9882;51.166;6.992;2023-07-20T12:38:08;6.00;;;1.85;;
19482;SDS011;9882;51.166;6.992;2023-07-20T12:40:42;2.10;;;1.42;;
19482;SDS011;9882;51.166;6.992;2023-07-20T12:43:11;10.55;;;1.65;;
19482;SDS011;9882;51.166;6.992;2023-07-20T12:45:41;2.28;;;1.60;;
19482;SDS011;9882;51.166;6.992;2023-07-20T12:48:11;1.30;;;1.20;;
19482;SDS011;9882;51.166;6.992;2023-07-20T12:50:41;1.42;;;1.30;;
19482;SDS011;9882;51.166;6.992;2023-07-20T12:53:10;2.35;;;1.67;;
19482;SDS011;9882;51.166;6.992;2023-07-20T12:55:39;1.38;;;1.25;;
19482;SDS011;9882;51.166;6.992;2023-07-20T12:58:08;2.42;;;1.65;;
19482;SDS011;9882;51.166;6.992;2023-07-20T13:00:37;3.42;;;1.70;;
19482;SDS011;9882;51.166;6.992;2023-07-20T13:03:08;7.18;;;1.48;;
19482;SDS011;9882;51.166;6.992;2023-07-20T13:05:57;7.68;;;1.95;;
19482;SDS011;9882;51.166;6.992;2023-07-20T13:08:32;3.17;;;1.55;;
19482;SDS011;9882;51.166;6.992;2023-07-20T13:11:01;1.80;;;1.38;;
19482;SDS011;9882;51.166;6.992;2023-07-20T13:13:32;3.38;;;1.50;;
19482;SDS011;9882;51.166;6.992;2023-07-20T13:16:02;4.28;;;1.52;;
19482;SDS011;9882;51.166;6.992;2023-07-20T13:18:32;1.63;;;1.45;;
19482;SDS011;9882;51.166;6.992;2023-07-20T13:21:02;3.17;;;1.30;;
19482;SDS011;9882;51.166;6.992;2023-07-20T13:23:34;6.93;;;1.40;;
19482;SDS011;9882;51.166;6.992;2023-07-20T13:26:04;3.90;;;1.67;;
19482;SDS011;9882;51.166;6.992;2023-07-20T13:28:35;4.65;;;1.73;;
19482;SDS011;9882;51.166;6.992;2023-07-20T13:31:04;1.90;;;1.70;;
19482;SDS011;9882;51.166;6.992;2023-07-20T13:33:36;1.60;;;1.50;;
19482;SDS011;9882;51.166;6.992;2023-07-20T13:36:07;1.60;;;1.50;;
19482;SDS011;9882;51.166;6.992;2023-07-20T13:38:36;2.85;;;1.48;;
19482;SDS011;9882;51.166;6.992;2023-07-20T13:41:08;1.52;;;1.33;;
19482;SDS011;9882;51.166;6.992;2023-07-20T13:43:37;1.55;;;1.45;;
19482;SDS011;9882;51.166;6.992;2023-07-20T13:46:06;4.57;;;1.48;;
19482;SDS011;9882;51.166;6.992;2023-07-20T13:48:35;2.45;;;1.70;;
19482;SDS011;9882;51.166;6.992;2023-07-20T13:51:04;1.65;;;1.55;;
19482;SDS011;9882;51.166;6.992;2023-07-20T13:53:34;1.77;;;1.35;;
19482;SDS011;9882;51.166;6.992;2023-07-20T13:56:06;1.85;;;1.50;;
19482;SDS011;9882;51.166;6.992;2023-07-20T13:58:38;2.88;;;1.45;;
19482;SDS011;9882;51.166;6.992;2023-07-20T14:01:07;2.28;;;1.77;;
19482;SDS011;9882;51.166;6.992;2023-07-20T14:03:36;2.15;;;1.55;;
19482;SDS011;9882;51.166;6.992;2023-07-20T14:06:07;2.05;;;1.50;;
19482;SDS011;9882;51.166;6.992;2023-07-20T14:08:40;1.60;;;1.50;;
19482;SDS011;9882;51.166;6.992;2023-07-20T14:11:09;1.70;;;1.60;;
19482;SDS011;9882;51.166;6.992;2023-07-20T14:13:41;7.50;;;1.63;;
19482;SDS011;9882;51.166;6.992;2023-07-20T14:16:13;2.50;;;1.95;;
19482;SDS011;9882;51.166;6.992;2023-07-20T14:18:42;2.70;;;1.63;;
19482;SDS011;9882;51.166;6.992;2023-07-20T14:21:15;4.00;;;1.55;;
19482;SDS011;9882;51.166;6.992;2023-07-20T14:23:47;2.08;;;1.83;;
19482;SDS011;9882;51.166;6.992;2023-07-20T14:26:19;5.30;;;1.83;;
19482;SDS011;9882;51.166;6.992;2023-07-20T14:28:49;1.75;;;1.65;;
19482;SDS011;9882;51.166;6.992;2023-07-20T14:31:18;1.55;;;1.10;;
19482;SDS011;9882;51.166;6.992;2023-07-20T14:33:48;2.92;;;1.55;;
19482;SDS011;9882;51.166;6.992;2023-07-20T14:36:20;3.13;;;1.80;;
19482;SDS011;9882;51.166;6.992;2023-07-20T14:38:51;4.30;;;2.13;;
19482;SDS011;9882;51.166;6.992;2023-07-20T14:41:21;2.72;;;1.50;;
19482;SDS011;9882;51.166;6.992;2023-07-20T14:43:50;1.70;;;1.60;;
19482;SDS011;9882;51.166;6.992;2023-07-20T14:46:20;2.67;;;1.20;;
19482;SDS011;9882;51.166;6.992;2023-07-20T14:48:52;5.78;;;1.70;;
19482;SDS011;9882;51.166;6.992;2023-07-20T14:51:21;3.95;;;1.73;;
19482;SDS011;9882;51.166;6.992;2023-07-20T14:53:52;4.85;;;2.03;;
19482;SDS011;9882;51.166;6.992;2023-07-20T14:56:23;4.35;;;1.85;;
19482;SDS011;9882;51.166;6.992;2023-07-20T14:58:55;4.50;;;1.50;;
19482;SDS011;9882;51.166;6.992;2023-07-20T15:01:29;9.50;;;2.03;;
19482;SDS011;9882;51.166;6.992;2023-07-20T15:04:03;1.92;;;1.63;;
19482;SDS011;9882;51.166;6.992;2023-07-20T15:06:39;3.95;;;1.63;;
19482;SDS011;9882;51.166;6.992;2023-07-20T15:09:16;3.22;;;1.50;;
19482;SDS011;9882;51.166;6.992;2023-07-20T15:11:44;1.60;;;1.50;;
19482;SDS011;9882;51.166;6.992;2023-07-20T15:14:13;3.90;;;1.70;;
19482;SDS011;9882;51.166;6.992;2023-07-20T15:16:41;5.88;;;1.63;;
19482;SDS011;9882;51.166;6.992;2023-07-20T15:19:10;9.07;;;1.27;;
19482;SDS011;9882;51.166;6.992;2023-07-20T15:21:40;3.08;;;1.33;;
19482;SDS011;9882;51.166;6.992;2023-07-20T15:24:08;2.13;;;1.60;;